Weather at Remire Island Airport

Public forecast

Using degrees Celsius for public forecast. Weather courtesy of forecast.io.

Closest aviation weather report (METAR) to Remire Island Airport

Report is more than 6 hours old.

Closest report is Seychelles International Airport, 134.8 nm (249.7 km) ENE.

2022/11/14 15:00 (retrieved 2 years ago)

FSIA 141500Z 24002KT 9999 FEW023 27/23 Q1012 NOSIG

Closest aviation forecast (TAF) to Remire Island Airport

Forecast is more than 12 hours old.

Closest forecast is Seychelles International Airport, 134.8 nm (249.7 km) ENE.

2023/02/22 18:12 (retrieved 1 year ago)

TAF FSIA 221704Z 2218/2318 32007KT 9999 FEW023